sensor_id;sensor_type;location;lat;lon;timestamp;P1;durP1;ratioP1;P2;durP2;ratioP2
6723;SDS011;3399;52.530;13.304;2023-11-21T00:00:03;11.83;;;7.67;;
6723;SDS011;3399;52.530;13.304;2023-11-21T00:02:35;11.03;;;9.07;;
6723;SDS011;3399;52.530;13.304;2023-11-21T00:05:01;13.00;;;8.90;;
6723;SDS011;3399;52.530;13.304;2023-11-21T00:07:28;15.47;;;10.70;;
6723;SDS011;3399;52.530;13.304;2023-11-21T00:09:53;16.33;;;10.50;;
6723;SDS011;3399;52.530;13.304;2023-11-21T00:12:21;15.00;;;9.87;;
6723;SDS011;3399;52.530;13.304;2023-11-21T00:14:46;12.83;;;10.43;;
6723;SDS011;3399;52.530;13.304;2023-11-21T00:17:12;16.17;;;12.20;;
6723;SDS011;3399;52.530;13.304;2023-11-21T00:19:37;17.83;;;10.97;;
6723;SDS011;3399;52.530;13.304;2023-11-21T00:22:03;15.17;;;10.87;;
6723;SDS011;3399;52.530;13.304;2023-11-21T00:24:28;13.17;;;9.57;;
6723;SDS011;3399;52.530;13.304;2023-11-21T00:26:54;16.83;;;10.10;;
6723;SDS011;3399;52.530;13.304;2023-11-21T00:29:19;15.50;;;11.57;;
6723;SDS011;3399;52.530;13.304;2023-11-21T00:31:45;15.30;;;10.87;;
6723;SDS011;3399;52.530;13.304;2023-11-21T00:34:13;19.73;;;12.33;;
6723;SDS011;3399;52.530;13.304;2023-11-21T00:36:39;17.50;;;10.87;;
6723;SDS011;3399;52.530;13.304;2023-11-21T00:39:05;17.63;;;11.60;;
6723;SDS011;3399;52.530;13.304;2023-11-21T00:41:31;20.77;;;13.13;;
6723;SDS011;3399;52.530;13.304;2023-11-21T00:43:57;20.97;;;12.83;;
6723;SDS011;3399;52.530;13.304;2023-11-21T00:46:24;23.23;;;13.87;;
6723;SDS011;3399;52.530;13.304;2023-11-21T00:48:52;31.83;;;15.93;;
6723;SDS011;3399;52.530;13.304;2023-11-21T00:51:19;34.77;;;16.60;;
6723;SDS011;3399;52.530;13.304;2023-11-21T00:53:44;33.63;;;15.83;;
6723;SDS011;3399;52.530;13.304;2023-11-21T00:56:10;29.40;;;18.03;;
6723;SDS011;3399;52.530;13.304;2023-11-21T00:58:35;38.30;;;19.80;;
6723;SDS011;3399;52.530;13.304;2023-11-21T01:01:01;35.53;;;19.20;;
6723;SDS011;3399;52.530;13.304;2023-11-21T01:03:28;39.47;;;21.37;;
6723;SDS011;3399;52.530;13.304;2023-11-21T01:05:53;41.40;;;20.53;;
6723;SDS011;3399;52.530;13.304;2023-11-21T01:08:19;39.40;;;19.27;;
6723;SDS011;3399;52.530;13.304;2023-11-21T01:10:45;36.03;;;19.40;;
6723;SDS011;3399;52.530;13.304;2023-11-21T01:13:11;39.23;;;20.47;;
6723;SDS011;3399;52.530;13.304;2023-11-21T01:15:36;34.87;;;20.37;;
6723;SDS011;3399;52.530;13.304;2023-11-21T01:18:02;26.73;;;15.63;;
6723;SDS011;3399;52.530;13.304;2023-11-21T01:20:28;32.33;;;16.17;;
6723;SDS011;3399;52.530;13.304;2023-11-21T01:22:54;23.40;;;13.73;;
6723;SDS011;3399;52.530;13.304;2023-11-21T01:25:20;23.67;;;13.70;;
6723;SDS011;3399;52.530;13.304;2023-11-21T01:27:46;20.67;;;11.20;;
6723;SDS011;3399;52.530;13.304;2023-11-21T01:30:12;23.17;;;13.07;;
6723;SDS011;3399;52.530;13.304;2023-11-21T01:32:37;24.60;;;13.70;;
6723;SDS011;3399;52.530;13.304;2023-11-21T01:35:04;22.50;;;12.40;;
6723;SDS011;3399;52.530;13.304;2023-11-21T01:37:31;20.83;;;12.20;;
6723;SDS011;3399;52.530;13.304;2023-11-21T01:39:57;21.90;;;12.03;;
6723;SDS011;3399;52.530;13.304;2023-11-21T01:42:24;23.63;;;12.90;;
6723;SDS011;3399;52.530;13.304;2023-11-21T01:44:49;18.43;;;12.57;;
6723;SDS011;3399;52.530;13.304;2023-11-21T01:47:15;28.07;;;13.77;;
6723;SDS011;3399;52.530;13.304;2023-11-21T01:49:43;25.97;;;14.43;;
6723;SDS011;3399;52.530;13.304;2023-11-21T01:52:10;27.13;;;13.60;;
6723;SDS011;3399;52.530;13.304;2023-11-21T01:54:36;26.20;;;13.87;;
6723;SDS011;3399;52.530;13.304;2023-11-21T01:57:03;21.63;;;12.97;;
6723;SDS011;3399;52.530;13.304;2023-11-21T01:59:34;26.43;;;12.47;;
6723;SDS011;3399;52.530;13.304;2023-11-21T02:02:04;20.83;;;11.80;;
6723;SDS011;3399;52.530;13.304;2023-11-21T02:04:31;19.33;;;12.40;;
6723;SDS011;3399;52.530;13.304;2023-11-21T02:06:58;18.97;;;13.10;;
6723;SDS011;3399;52.530;13.304;2023-11-21T02:09:27;15.73;;;9.03;;
6723;SDS011;3399;52.530;13.304;2023-11-21T02:11:54;18.23;;;10.50;;
6723;SDS011;3399;52.530;13.304;2023-11-21T02:14:20;14.80;;;9.70;;
6723;SDS011;3399;52.530;13.304;2023-11-21T02:16:51;12.87;;;8.30;;
6723;SDS011;3399;52.530;13.304;2023-11-21T02:19:20;14.53;;;7.37;;
6723;SDS011;3399;52.530;13.304;2023-11-21T02:21:48;11.70;;;8.43;;
6723;SDS011;3399;52.530;13.304;2023-11-21T02:24:15;11.40;;;7.83;;
6723;SDS011;3399;52.530;13.304;2023-11-21T02:26:40;12.67;;;8.07;;
6723;SDS011;3399;52.530;13.304;2023-11-21T02:29:06;11.10;;;8.37;;
6723;SDS011;3399;52.530;13.304;2023-11-21T02:31:35;10.13;;;8.27;;
6723;SDS011;3399;52.530;13.304;2023-11-21T02:34:02;10.57;;;7.50;;
6723;SDS011;3399;52.530;13.304;2023-11-21T02:36:28;9.90;;;8.00;;
6723;SDS011;3399;52.530;13.304;2023-11-21T02:38:55;7.57;;;6.67;;
6723;SDS011;3399;52.530;13.304;2023-11-21T02:41:20;9.07;;;8.00;;
6723;SDS011;3399;52.530;13.304;2023-11-21T02:43:46;8.57;;;7.57;;
6723;SDS011;3399;52.530;13.304;2023-11-21T02:46:11;8.67;;;7.63;;
6723;SDS011;3399;52.530;13.304;2023-11-21T02:48:37;8.33;;;7.53;;
6723;SDS011;3399;52.530;13.304;2023-11-21T02:51:02;10.33;;;8.10;;
6723;SDS011;3399;52.530;13.304;2023-11-21T02:53:28;8.97;;;7.97;;
6723;SDS011;3399;52.530;13.304;2023-11-21T02:55:53;9.03;;;8.07;;
6723;SDS011;3399;52.530;13.304;2023-11-21T02:58:19;9.47;;;8.47;;
6723;SDS011;3399;52.530;13.304;2023-11-21T03:00:44;10.97;;;8.27;;
6723;SDS011;3399;52.530;13.304;2023-11-21T03:03:10;11.47;;;9.23;;
6723;SDS011;3399;52.530;13.304;2023-11-21T03:05:35;9.93;;;8.70;;
6723;SDS011;3399;52.530;13.304;2023-11-21T03:08:02;9.10;;;8.20;;
6723;SDS011;3399;52.530;13.304;2023-11-21T03:10:27;9.27;;;8.27;;
6723;SDS011;3399;52.530;13.304;2023-11-21T03:12:53;11.33;;;9.37;;
6723;SDS011;3399;52.530;13.304;2023-11-21T03:15:18;10.87;;;8.60;;
6723;SDS011;3399;52.530;13.304;2023-11-21T03:17:44;8.47;;;7.37;;
6723;SDS011;3399;52.530;13.304;2023-11-21T03:20:10;10.23;;;9.23;;
6723;SDS011;3399;52.530;13.304;2023-11-21T03:22:38;8.47;;;7.57;;
6723;SDS011;3399;52.530;13.304;2023-11-21T03:25:04;10.00;;;8.90;;
6723;SDS011;3399;52.530;13.304;2023-11-21T03:27:30;11.97;;;8.13;;
6723;SDS011;3399;52.530;13.304;2023-11-21T03:29:55;11.50;;;8.00;;
6723;SDS011;3399;52.530;13.304;2023-11-21T03:32:21;9.37;;;7.97;;
6723;SDS011;3399;52.530;13.304;2023-11-21T03:34:57;10.20;;;8.97;;
6723;SDS011;3399;52.530;13.304;2023-11-21T03:37:23;10.40;;;8.87;;
6723;SDS011;3399;52.530;13.304;2023-11-21T03:39:50;10.70;;;8.70;;
6723;SDS011;3399;52.530;13.304;2023-11-21T03:42:16;13.37;;;9.13;;
6723;SDS011;3399;52.530;13.304;2023-11-21T03:44:41;10.87;;;8.80;;
6723;SDS011;3399;52.530;13.304;2023-11-21T03:47:07;9.73;;;8.63;;
6723;SDS011;3399;52.530;13.304;2023-11-21T03:49:32;10.40;;;9.10;;
6723;SDS011;3399;52.530;13.304;2023-11-21T03:51:58;10.93;;;9.23;;
6723;SDS011;3399;52.530;13.304;2023-11-21T03:54:24;10.23;;;9.23;;
6723;SDS011;3399;52.530;13.304;2023-11-21T03:56:49;9.23;;;8.33;;
6723;SDS011;3399;52.530;13.304;2023-11-21T03:59:15;10.67;;;8.77;;
6723;SDS011;3399;52.530;13.304;2023-11-21T04:01:40;11.90;;;9.57;;
6723;SDS011;3399;52.530;13.304;2023-11-21T04:04:06;11.13;;;9.47;;
6723;SDS011;3399;52.530;13.304;2023-11-21T04:06:31;14.67;;;10.67;;
6723;SDS011;3399;52.530;13.304;2023-11-21T04:08:57;10.07;;;8.97;;
6723;SDS011;3399;52.530;13.304;2023-11-21T04:11:23;13.27;;;11.10;;
6723;SDS011;3399;52.530;13.304;2023-11-21T04:13:49;9.37;;;8.23;;
6723;SDS011;3399;52.530;13.304;2023-11-21T04:16:15;12.93;;;9.53;;
6723;SDS011;3399;52.530;13.304;2023-11-21T04:18:40;12.20;;;8.13;;
6723;SDS011;3399;52.530;13.304;2023-11-21T04:21:06;10.27;;;8.67;;
6723;SDS011;3399;52.530;13.304;2023-11-21T04:23:32;11.93;;;9.87;;
6723;SDS011;3399;52.530;13.304;2023-11-21T04:25:58;10.83;;;9.10;;
6723;SDS011;3399;52.530;13.304;2023-11-21T04:28:24;11.97;;;9.57;;
6723;SDS011;3399;52.530;13.304;2023-11-21T04:30:50;9.73;;;8.50;;
6723;SDS011;3399;52.530;13.304;2023-11-21T04:33:15;10.83;;;9.13;;
6723;SDS011;3399;52.530;13.304;2023-11-21T04:35:41;11.40;;;10.00;;
6723;SDS011;3399;52.530;13.304;2023-11-21T04:38:07;11.67;;;8.93;;
6723;SDS011;3399;52.530;13.304;2023-11-21T04:40:32;13.97;;;9.60;;
6723;SDS011;3399;52.530;13.304;2023-11-21T04:42:58;10.27;;;8.93;;
6723;SDS011;3399;52.530;13.304;2023-11-21T04:45:24;10.07;;;8.13;;
6723;SDS011;3399;52.530;13.304;2023-11-21T04:47:49;12.33;;;8.60;;
6723;SDS011;3399;52.530;13.304;2023-11-21T04:50:15;10.87;;;8.77;;
6723;SDS011;3399;52.530;13.304;2023-11-21T04:52:41;10.47;;;8.00;;
6723;SDS011;3399;52.530;13.304;2023-11-21T04:55:07;7.87;;;7.07;;
6723;SDS011;3399;52.530;13.304;2023-11-21T04:57:35;8.77;;;7.57;;
6723;SDS011;3399;52.530;13.304;2023-11-21T05:00:01;10.07;;;6.93;;
6723;SDS011;3399;52.530;13.304;2023-11-21T05:02:30;8.77;;;7.70;;
6723;SDS011;3399;52.530;13.304;2023-11-21T05:04:59;9.00;;;7.40;;
6723;SDS011;3399;52.530;13.304;2023-11-21T05:07:25;7.90;;;7.10;;
6723;SDS011;3399;52.530;13.304;2023-11-21T05:09:53;8.03;;;7.20;;
6723;SDS011;3399;52.530;13.304;2023-11-21T05:12:20;8.67;;;7.17;;
6723;SDS011;3399;52.530;13.304;2023-11-21T05:14:46;10.13;;;7.73;;
6723;SDS011;3399;52.530;13.304;2023-11-21T05:17:12;10.47;;;8.17;;
6723;SDS011;3399;52.530;13.304;2023-11-21T05:19:37;9.50;;;7.50;;
6723;SDS011;3399;52.530;13.304;2023-11-21T05:22:03;8.77;;;7.37;;
6723;SDS011;3399;52.530;13.304;2023-11-21T05:24:33;9.03;;;8.13;;
6723;SDS011;3399;52.530;13.304;2023-11-21T05:27:00;10.13;;;7.27;;
6723;SDS011;3399;52.530;13.304;2023-11-21T05:29:25;9.83;;;8.37;;
6723;SDS011;3399;52.530;13.304;2023-11-21T05:31:51;8.97;;;6.87;;
6723;SDS011;3399;52.530;13.304;2023-11-21T05:34:18;9.17;;;7.47;;
6723;SDS011;3399;52.530;13.304;2023-11-21T05:36:43;9.87;;;8.20;;
6723;SDS011;3399;52.530;13.304;2023-11-21T05:39:10;9.30;;;8.27;;
6723;SDS011;3399;52.530;13.304;2023-11-21T05:41:36;10.00;;;7.70;;
6723;SDS011;3399;52.530;13.304;2023-11-21T05:44:01;9.60;;;7.90;;
6723;SDS011;3399;52.530;13.304;2023-11-21T05:46:27;10.33;;;7.60;;
6723;SDS011;3399;52.530;13.304;2023-11-21T05:48:53;9.03;;;7.57;;
6723;SDS011;3399;52.530;13.304;2023-11-21T05:51:18;13.33;;;7.33;;
6723;SDS011;3399;52.530;13.304;2023-11-21T05:53:44;9.53;;;7.17;;
6723;SDS011;3399;52.530;13.304;2023-11-21T05:56:09;10.97;;;7.03;;
6723;SDS011;3399;52.530;13.304;2023-11-21T05:58:35;9.03;;;6.87;;
6723;SDS011;3399;52.530;13.304;2023-11-21T06:01:00;7.23;;;6.43;;
6723;SDS011;3399;52.530;13.304;2023-11-21T06:03:27;8.37;;;7.27;;
6723;SDS011;3399;52.530;13.304;2023-11-21T06:05:53;7.93;;;6.30;;
6723;SDS011;3399;52.530;13.304;2023-11-21T06:08:18;8.00;;;6.40;;
6723;SDS011;3399;52.530;13.304;2023-11-21T06:10:44;8.13;;;5.20;;
6723;SDS011;3399;52.530;13.304;2023-11-21T06:13:10;7.80;;;6.33;;
6723;SDS011;3399;52.530;13.304;2023-11-21T06:15:36;8.60;;;6.53;;
6723;SDS011;3399;52.530;13.304;2023-11-21T06:18:01;5.50;;;5.00;;
6723;SDS011;3399;52.530;13.304;2023-11-21T06:20:27;7.10;;;5.83;;
6723;SDS011;3399;52.530;13.304;2023-11-21T06:22:53;7.50;;;6.23;;
6723;SDS011;3399;52.530;13.304;2023-11-21T06:25:18;6.50;;;5.83;;
6723;SDS011;3399;52.530;13.304;2023-11-21T06:27:45;5.60;;;4.97;;
6723;SDS011;3399;52.530;13.304;2023-11-21T06:30:15;6.20;;;5.50;;
6723;SDS011;3399;52.530;13.304;2023-11-21T06:32:41;7.53;;;5.67;;
6723;SDS011;3399;52.530;13.304;2023-11-21T06:35:11;6.43;;;5.83;;
6723;SDS011;3399;52.530;13.304;2023-11-21T06:37:37;8.17;;;6.30;;
6723;SDS011;3399;52.530;13.304;2023-11-21T06:40:02;7.07;;;6.30;;
6723;SDS011;3399;52.530;13.304;2023-11-21T06:42:31;6.77;;;6.07;;
6723;SDS011;3399;52.530;13.304;2023-11-21T06:44:58;7.10;;;5.67;;
6723;SDS011;3399;52.530;13.304;2023-11-21T06:47:27;7.63;;;5.83;;
6723;SDS011;3399;52.530;13.304;2023-11-21T06:49:54;8.40;;;5.47;;
6723;SDS011;3399;52.530;13.304;2023-11-21T06:52:20;8.27;;;6.43;;
6723;SDS011;3399;52.530;13.304;2023-11-21T06:54:46;6.30;;;4.90;;
6723;SDS011;3399;52.530;13.304;2023-11-21T06:57:14;6.13;;;5.47;;
6723;SDS011;3399;52.530;13.304;2023-11-21T06:59:40;5.80;;;5.13;;
6723;SDS011;3399;52.530;13.304;2023-11-21T07:02:06;6.77;;;5.73;;
6723;SDS011;3399;52.530;13.304;2023-11-21T07:04:32;7.63;;;4.80;;
6723;SDS011;3399;52.530;13.304;2023-11-21T07:07:01;5.40;;;4.90;;
6723;SDS011;3399;52.530;13.304;2023-11-21T07:09:27;5.93;;;4.67;;
6723;SDS011;3399;52.530;13.304;2023-11-21T07:11:53;5.67;;;4.93;;
6723;SDS011;3399;52.530;13.304;2023-11-21T07:14:19;5.50;;;4.77;;
6723;SDS011;3399;52.530;13.304;2023-11-21T07:16:45;5.57;;;4.40;;
6723;SDS011;3399;52.530;13.304;2023-11-21T07:19:11;4.77;;;4.03;;
6723;SDS011;3399;52.530;13.304;2023-11-21T07:21:37;5.30;;;4.80;;
6723;SDS011;3399;52.530;13.304;2023-11-21T07:24:04;5.77;;;4.70;;
6723;SDS011;3399;52.530;13.304;2023-11-21T07:26:31;3.87;;;3.33;;
6723;SDS011;3399;52.530;13.304;2023-11-21T07:28:58;6.50;;;4.10;;
6723;SDS011;3399;52.530;13.304;2023-11-21T07:31:24;5.43;;;3.83;;
6723;SDS011;3399;52.530;13.304;2023-11-21T07:33:50;5.37;;;4.07;;
6723;SDS011;3399;52.530;13.304;2023-11-21T07:36:16;9.87;;;4.00;;
6723;SDS011;3399;52.530;13.304;2023-11-21T07:38:48;7.60;;;4.80;;
6723;SDS011;3399;52.530;13.304;2023-11-21T07:41:14;4.80;;;4.27;;
6723;SDS011;3399;52.530;13.304;2023-11-21T07:43:40;5.17;;;3.83;;
6723;SDS011;3399;52.530;13.304;2023-11-21T07:46:06;4.87;;;4.37;;
6723;SDS011;3399;52.530;13.304;2023-11-21T07:48:33;4.23;;;3.53;;
6723;SDS011;3399;52.530;13.304;2023-11-21T07:51:01;4.90;;;3.97;;
6723;SDS011;3399;52.530;13.304;2023-11-21T07:53:28;5.77;;;4.03;;
6723;SDS011;3399;52.530;13.304;2023-11-21T07:55:55;4.27;;;3.87;;
6723;SDS011;3399;52.530;13.304;2023-11-21T07:58:20;4.67;;;4.07;;
6723;SDS011;3399;52.530;13.304;2023-11-21T08:00:46;4.97;;;4.07;;
6723;SDS011;3399;52.530;13.304;2023-11-21T08:03:13;4.70;;;4.23;;
6723;SDS011;3399;52.530;13.304;2023-11-21T08:05:38;5.37;;;4.00;;
6723;SDS011;3399;52.530;13.304;2023-11-21T08:08:04;4.80;;;3.80;;
6723;SDS011;3399;52.530;13.304;2023-11-21T08:10:30;5.33;;;4.83;;
6723;SDS011;3399;52.530;13.304;2023-11-21T08:12:55;4.17;;;3.77;;
6723;SDS011;3399;52.530;13.304;2023-11-21T08:15:21;4.73;;;3.73;;
6723;SDS011;3399;52.530;13.304;2023-11-21T08:17:47;4.63;;;4.17;;
6723;SDS011;3399;52.530;13.304;2023-11-21T08:20:13;4.63;;;4.13;;
6723;SDS011;3399;52.530;13.304;2023-11-21T08:22:41;5.30;;;3.63;;
6723;SDS011;3399;52.530;13.304;2023-11-21T08:25:07;5.13;;;4.53;;
6723;SDS011;3399;52.530;13.304;2023-11-21T08:27:33;5.73;;;5.23;;
6723;SDS011;3399;52.530;13.304;2023-11-21T08:29:59;4.23;;;3.90;;
6723;SDS011;3399;52.530;13.304;2023-11-21T08:32:25;6.77;;;4.67;;
6723;SDS011;3399;52.530;13.304;2023-11-21T08:34:51;4.73;;;4.27;;
6723;SDS011;3399;52.530;13.304;2023-11-21T08:37:17;5.77;;;5.10;;
6723;SDS011;3399;52.530;13.304;2023-11-21T08:39:46;6.57;;;4.93;;
6723;SDS011;3399;52.530;13.304;2023-11-21T08:42:13;5.13;;;4.53;;
6723;SDS011;3399;52.530;13.304;2023-11-21T08:44:39;5.57;;;5.00;;
6723;SDS011;3399;52.530;13.304;2023-11-21T08:47:05;6.07;;;5.07;;
6723;SDS011;3399;52.530;13.304;2023-11-21T08:49:31;5.23;;;4.53;;
6723;SDS011;3399;52.530;13.304;2023-11-21T08:51:57;5.90;;;4.53;;
6723;SDS011;3399;52.530;13.304;2023-11-21T08:54:24;5.17;;;4.50;;
6723;SDS011;3399;52.530;13.304;2023-11-21T08:56:51;7.13;;;5.80;;
6723;SDS011;3399;52.530;13.304;2023-11-21T08:59:18;11.73;;;7.73;;
6723;SDS011;3399;52.530;13.304;2023-11-21T09:01:45;6.60;;;4.83;;
6723;SDS011;3399;52.530;13.304;2023-11-21T09:04:10;5.00;;;4.50;;
6723;SDS011;3399;52.530;13.304;2023-11-21T09:06:36;5.30;;;4.80;;
6723;SDS011;3399;52.530;13.304;2023-11-21T09:09:01;5.70;;;5.07;;
6723;SDS011;3399;52.530;13.304;2023-11-21T09:11:29;5.50;;;4.07;;
6723;SDS011;3399;52.530;13.304;2023-11-21T09:13:58;4.30;;;3.90;;
6723;SDS011;3399;52.530;13.304;2023-11-21T09:16:28;5.67;;;4.50;;
6723;SDS011;3399;52.530;13.304;2023-11-21T09:18:54;4.87;;;3.90;;
6723;SDS011;3399;52.530;13.304;2023-11-21T09:21:20;4.67;;;3.93;;
6723;SDS011;3399;52.530;13.304;2023-11-21T09:23:46;5.30;;;4.50;;
6723;SDS011;3399;52.530;13.304;2023-11-21T09:26:12;4.43;;;4.00;;
6723;SDS011;3399;52.530;13.304;2023-11-21T09:28:37;5.80;;;4.47;;
6723;SDS011;3399;52.530;13.304;2023-11-21T09:31:04;7.80;;;4.47;;
6723;SDS011;3399;52.530;13.304;2023-11-21T09:33:30;10.03;;;5.70;;
6723;SDS011;3399;52.530;13.304;2023-11-21T09:35:56;7.00;;;4.57;;
6723;SDS011;3399;52.530;13.304;2023-11-21T09:38:22;8.80;;;5.90;;
6723;SDS011;3399;52.530;13.304;2023-11-21T09:40:48;10.80;;;5.67;;
6723;SDS011;3399;52.530;13.304;2023-11-21T09:43:18;9.63;;;5.97;;
6723;SDS011;3399;52.530;13.304;2023-11-21T09:45:45;13.13;;;7.57;;
6723;SDS011;3399;52.530;13.304;2023-11-21T09:48:12;7.63;;;5.20;;
6723;SDS011;3399;52.530;13.304;2023-11-21T09:50:39;12.00;;;6.23;;
6723;SDS011;3399;52.530;13.304;2023-11-21T09:53:28;13.17;;;6.67;;
6723;SDS011;3399;52.530;13.304;2023-11-21T09:55:56;11.17;;;7.67;;
6723;SDS011;3399;52.530;13.304;2023-11-21T09:58:21;11.33;;;6.67;;
6723;SDS011;3399;52.530;13.304;2023-11-21T10:00:51;9.40;;;5.93;;
6723;SDS011;3399;52.530;13.304;2023-11-21T10:03:18;9.57;;;6.13;;
6723;SDS011;3399;52.530;13.304;2023-11-21T10:05:44;8.77;;;5.57;;
6723;SDS011;3399;52.530;13.304;2023-11-21T10:08:11;11.37;;;7.10;;
6723;SDS011;3399;52.530;13.304;2023-11-21T10:10:38;12.47;;;7.27;;
6723;SDS011;3399;52.530;13.304;2023-11-21T10:13:11;9.33;;;5.90;;
6723;SDS011;3399;52.530;13.304;2023-11-21T10:15:38;9.53;;;6.17;;
6723;SDS011;3399;52.530;13.304;2023-11-21T10:18:06;7.27;;;5.57;;
6723;SDS011;3399;52.530;13.304;2023-11-21T10:20:34;5.73;;;5.10;;
6723;SDS011;3399;52.530;13.304;2023-11-21T10:23:00;8.17;;;5.37;;
6723;SDS011;3399;52.530;13.304;2023-11-21T10:25:27;11.37;;;6.07;;
6723;SDS011;3399;52.530;13.304;2023-11-21T10:27:57;9.70;;;5.83;;
6723;SDS011;3399;52.530;13.304;2023-11-21T10:30:35;9.67;;;5.40;;
6723;SDS011;3399;52.530;13.304;2023-11-21T10:33:06;5.37;;;4.77;;
6723;SDS011;3399;52.530;13.304;2023-11-21T10:35:43;7.33;;;4.97;;
6723;SDS011;3399;52.530;13.304;2023-11-21T10:38:20;7.83;;;5.43;;
6723;SDS011;3399;52.530;13.304;2023-11-21T10:40:48;9.23;;;5.60;;
6723;SDS011;3399;52.530;13.304;2023-11-21T10:43:14;5.90;;;4.47;;
6723;SDS011;3399;52.530;13.304;2023-11-21T10:45:40;7.80;;;6.00;;
6723;SDS011;3399;52.530;13.304;2023-11-21T10:48:10;7.03;;;5.30;;
6723;SDS011;3399;52.530;13.304;2023-11-21T10:50:43;9.27;;;5.87;;
6723;SDS011;3399;52.530;13.304;2023-11-21T10:53:10;9.33;;;6.23;;
6723;SDS011;3399;52.530;13.304;2023-11-21T10:55:37;8.63;;;5.57;;
6723;SDS011;3399;52.530;13.304;2023-11-21T10:58:03;9.37;;;6.73;;
6723;SDS011;3399;52.530;13.304;2023-11-21T11:00:31;8.77;;;6.37;;
6723;SDS011;3399;52.530;13.304;2023-11-21T11:02:58;11.07;;;6.60;;
6723;SDS011;3399;52.530;13.304;2023-11-21T11:05:24;10.17;;;7.23;;
6723;SDS011;3399;52.530;13.304;2023-11-21T11:07:51;8.43;;;7.17;;
6723;SDS011;3399;52.530;13.304;2023-11-21T11:10:26;6.97;;;5.87;;
6723;SDS011;3399;52.530;13.304;2023-11-21T11:12:54;9.33;;;5.70;;
6723;SDS011;3399;52.530;13.304;2023-11-21T11:15:20;7.40;;;5.80;;
6723;SDS011;3399;52.530;13.304;2023-11-21T11:17:46;8.37;;;6.10;;
6723;SDS011;3399;52.530;13.304;2023-11-21T11:20:14;6.33;;;5.10;;
6723;SDS011;3399;52.530;13.304;2023-11-21T11:22:44;10.23;;;5.43;;
6723;SDS011;3399;52.530;13.304;2023-11-21T11:25:44;6.70;;;4.57;;
6723;SDS011;3399;52.530;13.304;2023-11-21T11:29:01;7.10;;;5.43;;
6723;SDS011;3399;52.530;13.304;2023-11-21T11:34:32;6.67;;;5.03;;
6723;SDS011;3399;52.530;13.304;2023-11-21T11:37:02;9.17;;;4.43;;
6723;SDS011;3399;52.530;13.304;2023-11-21T11:39:30;5.60;;;4.40;;
6723;SDS011;3399;52.530;13.304;2023-11-21T11:42:16;4.67;;;3.60;;
6723;SDS011;3399;52.530;13.304;2023-11-21T11:47:14;5.03;;;3.50;;
6723;SDS011;3399;52.530;13.304;2023-11-21T11:50:10;4.53;;;3.30;;
6723;SDS011;3399;52.530;13.304;2023-11-21T11:52:53;3.80;;;3.37;;
6723;SDS011;3399;52.530;13.304;2023-11-21T11:55:23;4.33;;;3.93;;
6723;SDS011;3399;52.530;13.304;2023-11-21T11:57:52;3.73;;;3.10;;
6723;SDS011;3399;52.530;13.304;2023-11-21T12:02:59;3.37;;;3.03;;
6723;SDS011;3399;52.530;13.304;2023-11-21T12:05:28;4.53;;;3.10;;
6723;SDS011;3399;52.530;13.304;2023-11-21T12:07:58;3.30;;;2.87;;
6723;SDS011;3399;52.530;13.304;2023-11-21T12:10:32;2.87;;;2.63;;
6723;SDS011;3399;52.530;13.304;2023-11-21T12:13:01;3.07;;;2.77;;
6723;SDS011;3399;52.530;13.304;2023-11-21T12:15:30;6.07;;;3.77;;
6723;SDS011;3399;52.530;13.304;2023-11-21T12:17:56;4.00;;;3.60;;
6723;SDS011;3399;52.530;13.304;2023-11-21T12:20:23;6.23;;;3.67;;
6723;SDS011;3399;52.530;13.304;2023-11-21T12:22:50;4.03;;;3.63;;
6723;SDS011;3399;52.530;13.304;2023-11-21T12:25:21;4.07;;;3.67;;
6723;SDS011;3399;52.530;13.304;2023-11-21T12:27:54;3.67;;;3.37;;
6723;SDS011;3399;52.530;13.304;2023-11-21T12:30:30;3.67;;;3.33;;
6723;SDS011;3399;52.530;13.304;2023-11-21T12:32:57;5.10;;;4.33;;
6723;SDS011;3399;52.530;13.304;2023-11-21T12:35:27;4.90;;;4.20;;
6723;SDS011;3399;52.530;13.304;2023-11-21T12:37:59;4.53;;;3.50;;
6723;SDS011;3399;52.530;13.304;2023-11-21T12:40:27;6.10;;;4.23;;
6723;SDS011;3399;52.530;13.304;2023-11-21T12:42:55;4.13;;;3.80;;
6723;SDS011;3399;52.530;13.304;2023-11-21T12:45:24;4.47;;;4.07;;
6723;SDS011;3399;52.530;13.304;2023-11-21T12:47:54;5.13;;;4.07;;
6723;SDS011;3399;52.530;13.304;2023-11-21T12:50:22;4.53;;;4.13;;
6723;SDS011;3399;52.530;13.304;2023-11-21T12:52:51;4.50;;;4.10;;
6723;SDS011;3399;52.530;13.304;2023-11-21T12:55:18;4.77;;;3.77;;
6723;SDS011;3399;52.530;13.304;2023-11-21T12:57:56;3.63;;;3.40;;
6723;SDS011;3399;52.530;13.304;2023-11-21T13:00:29;5.87;;;4.53;;
6723;SDS011;3399;52.530;13.304;2023-11-21T13:02:59;3.83;;;3.53;;
6723;SDS011;3399;52.530;13.304;2023-11-21T13:05:28;6.40;;;4.73;;
6723;SDS011;3399;52.530;13.304;2023-11-21T13:07:55;4.93;;;4.03;;
6723;SDS011;3399;52.530;13.304;2023-11-21T13:10:25;11.33;;;6.63;;
6723;SDS011;3399;52.530;13.304;2023-11-21T13:12:59;10.93;;;6.20;;
6723;SDS011;3399;52.530;13.304;2023-11-21T13:15:26;9.30;;;6.47;;
6723;SDS011;3399;52.530;13.304;2023-11-21T13:17:52;10.00;;;6.33;;
6723;SDS011;3399;52.530;13.304;2023-11-21T13:20:18;8.57;;;6.63;;
6723;SDS011;3399;52.530;13.304;2023-11-21T13:22:48;9.43;;;6.80;;
6723;SDS011;3399;52.530;13.304;2023-11-21T13:25:18;8.40;;;6.47;;
6723;SDS011;3399;52.530;13.304;2023-11-21T13:27:44;8.97;;;6.93;;
6723;SDS011;3399;52.530;13.304;2023-11-21T13:30:11;8.63;;;7.33;;
6723;SDS011;3399;52.530;13.304;2023-11-21T13:32:40;11.87;;;8.10;;
6723;SDS011;3399;52.530;13.304;2023-11-21T13:35:06;15.10;;;8.57;;
6723;SDS011;3399;52.530;13.304;2023-11-21T13:37:33;12.50;;;8.07;;
6723;SDS011;3399;52.530;13.304;2023-11-21T13:39:59;10.87;;;8.53;;
6723;SDS011;3399;52.530;13.304;2023-11-21T13:42:28;15.73;;;9.73;;
6723;SDS011;3399;52.530;13.304;2023-11-21T13:44:57;15.53;;;10.73;;
6723;SDS011;3399;52.530;13.304;2023-11-21T13:47:22;28.87;;;10.37;;
6723;SDS011;3399;52.530;13.304;2023-11-21T13:49:54;18.83;;;11.53;;
6723;SDS011;3399;52.530;13.304;2023-11-21T13:52:19;20.10;;;12.67;;
6723;SDS011;3399;52.530;13.304;2023-11-21T13:54:48;22.83;;;13.03;;
6723;SDS011;3399;52.530;13.304;2023-11-21T13:57:14;23.03;;;14.43;;
6723;SDS011;3399;52.530;13.304;2023-11-21T13:59:39;26.83;;;16.10;;
6723;SDS011;3399;52.530;13.304;2023-11-21T14:02:05;21.17;;;15.53;;
6723;SDS011;3399;52.530;13.304;2023-11-21T14:04:43;27.60;;;15.63;;
6723;SDS011;3399;52.530;13.304;2023-11-21T14:07:20;27.43;;;16.93;;
6723;SDS011;3399;52.530;13.304;2023-11-21T14:10:12;23.90;;;14.63;;
6723;SDS011;3399;52.530;13.304;2023-11-21T14:12:39;29.47;;;15.73;;
6723;SDS011;3399;52.530;13.304;2023-11-21T14:15:07;24.23;;;15.70;;
6723;SDS011;3399;52.530;13.304;2023-11-21T14:17:35;19.97;;;13.50;;
6723;SDS011;3399;52.530;13.304;2023-11-21T14:20:03;22.50;;;14.47;;
6723;SDS011;3399;52.530;13.304;2023-11-21T14:22:30;20.93;;;13.53;;
6723;SDS011;3399;52.530;13.304;2023-11-21T14:24:56;23.40;;;14.70;;
6723;SDS011;3399;52.530;13.304;2023-11-21T14:27:24;20.77;;;13.13;;
6723;SDS011;3399;52.530;13.304;2023-11-21T14:29:50;24.23;;;14.37;;
6723;SDS011;3399;52.530;13.304;2023-11-21T14:32:17;19.50;;;14.07;;
6723;SDS011;3399;52.530;13.304;2023-11-21T14:34:43;23.97;;;14.90;;
6723;SDS011;3399;52.530;13.304;2023-11-21T14:37:11;21.77;;;14.77;;
6723;SDS011;3399;52.530;13.304;2023-11-21T14:39:39;24.63;;;16.53;;
6723;SDS011;3399;52.530;13.304;2023-11-21T14:42:09;23.07;;;15.27;;
6723;SDS011;3399;52.530;13.304;2023-11-21T14:44:35;19.63;;;14.90;;
6723;SDS011;3399;52.530;13.304;2023-11-21T14:47:05;23.43;;;15.37;;
6723;SDS011;3399;52.530;13.304;2023-11-21T14:49:39;16.03;;;12.90;;
6723;SDS011;3399;52.530;13.304;2023-11-21T14:52:17;16.93;;;13.80;;
6723;SDS011;3399;52.530;13.304;2023-11-21T14:54:58;17.50;;;13.47;;
6723;SDS011;3399;52.530;13.304;2023-11-21T14:57:45;17.20;;;13.20;;
6723;SDS011;3399;52.530;13.304;2023-11-21T15:00:15;16.93;;;12.13;;
6723;SDS011;3399;52.530;13.304;2023-11-21T15:03:02;14.17;;;11.03;;